createdAt,value
2017-05-27T00:01:50.874Z,6.74
2017-05-27T00:04:17.593Z,6.54
2017-05-27T00:06:44.355Z,7.40
2017-05-27T00:09:11.073Z,7.58
2017-05-27T00:11:37.797Z,7.46
2017-05-27T00:14:04.516Z,8.68
2017-05-27T00:16:31.241Z,7.44
2017-05-27T00:18:57.963Z,8.76
2017-05-27T00:21:24.689Z,7.30
2017-05-27T00:23:51.399Z,8.44
2017-05-27T00:26:18.141Z,7.96
2017-05-27T00:28:44.878Z,8.18
2017-05-27T00:31:11.609Z,7.78
2017-05-27T00:33:38.321Z,7.44
2017-05-27T00:36:05.049Z,8.54
2017-05-27T00:38:31.778Z,8.28
2017-05-27T00:40:58.498Z,8.24
2017-05-27T00:43:25.229Z,8.00
2017-05-27T00:45:53.311Z,7.50
2017-05-27T00:48:20.029Z,7.46
2017-05-27T00:50:46.760Z,8.08
2017-05-27T00:53:13.484Z,11.92
2017-05-27T00:55:40.207Z,8.00
2017-05-27T00:58:06.951Z,8.32
2017-05-27T01:00:33.665Z,8.70
2017-05-27T01:03:00.383Z,7.90
2017-05-27T01:05:27.107Z,11.26
2017-05-27T01:07:53.822Z,7.84
2017-05-27T01:10:20.541Z,8.40
2017-05-27T01:12:47.284Z,7.58
2017-05-27T01:15:13.998Z,7.70
2017-05-27T01:17:40.711Z,8.28
2017-05-27T01:20:07.423Z,8.42
2017-05-27T01:22:34.140Z,8.42
2017-05-27T01:25:00.856Z,8.60
2017-05-27T01:27:27.595Z,11.30
2017-05-27T01:29:54.316Z,9.96
2017-05-27T01:32:21.041Z,7.16
2017-05-27T01:34:47.796Z,8.96
2017-05-27T01:37:14.510Z,9.14
2017-05-27T01:39:41.236Z,11.38
2017-05-27T01:42:07.959Z,9.92
2017-05-27T01:44:34.688Z,10.48
2017-05-27T01:47:01.424Z,10.58
2017-05-27T01:49:28.199Z,10.34
2017-05-27T01:51:54.919Z,7.78
2017-05-27T01:54:21.645Z,8.68
2017-05-27T01:56:48.371Z,7.10
2017-05-27T01:59:15.093Z,7.82
2017-05-27T02:01:41.825Z,8.62
2017-05-27T02:04:08.602Z,9.48
2017-05-27T02:06:35.334Z,8.28
2017-05-27T02:09:02.151Z,8.00
2017-05-27T02:11:28.870Z,7.86
2017-05-27T02:13:55.587Z,8.88
2017-05-27T02:16:22.310Z,8.50
2017-05-27T02:18:49.041Z,11.54
2017-05-27T02:21:15.749Z,8.54
2017-05-27T02:23:42.464Z,9.36
2017-05-27T02:26:09.230Z,8.72
2017-05-27T02:28:35.955Z,11.16
2017-05-27T02:31:02.684Z,9.42
2017-05-27T02:33:29.409Z,10.78
2017-05-27T02:35:56.126Z,8.80
2017-05-27T02:38:22.849Z,10.02
2017-05-27T02:40:50.074Z,8.32
2017-05-27T02:43:16.827Z,9.96
2017-05-27T02:45:43.551Z,9.42
2017-05-27T02:48:10.269Z,9.08
2017-05-27T02:50:36.986Z,8.44
2017-05-27T02:53:03.709Z,8.52
2017-05-27T02:55:30.490Z,8.28
2017-05-27T02:57:57.203Z,8.96
2017-05-27T03:00:23.927Z,8.06
2017-05-27T03:02:50.640Z,8.32
2017-05-27T03:05:17.362Z,8.08
2017-05-27T03:07:44.092Z,8.14
2017-05-27T03:10:10.856Z,7.58
2017-05-27T03:12:37.611Z,12.50
2017-05-27T03:15:04.334Z,7.04
2017-05-27T03:17:31.052Z,6.54
2017-05-27T03:19:57.766Z,6.56
2017-05-27T03:22:24.489Z,7.66
2017-05-27T03:24:51.226Z,8.40
2017-05-27T03:27:17.945Z,6.62
2017-05-27T03:29:44.689Z,9.02
2017-05-27T03:32:11.450Z,7.14
2017-05-27T03:34:38.169Z,6.32
2017-05-27T03:37:04.896Z,6.52
2017-05-27T03:39:31.626Z,6.52
2017-05-27T03:41:58.348Z,9.42
2017-05-27T03:44:25.073Z,7.44
2017-05-27T03:47:07.413Z,6.64
2017-05-27T03:49:34.149Z,9.20
2017-05-27T03:52:00.876Z,6.24
2017-05-27T03:54:27.601Z,8.52
2017-05-27T03:56:54.316Z,6.88
2017-05-27T03:59:21.050Z,7.08
2017-05-27T04:01:47.778Z,7.22
2017-05-27T04:04:14.498Z,6.90
2017-05-27T04:06:41.221Z,7.20
2017-05-27T04:09:07.985Z,7.86
2017-05-27T04:11:34.699Z,8.00
2017-05-27T04:14:01.415Z,6.24
2017-05-27T04:16:28.141Z,7.76
2017-05-27T04:18:54.858Z,7.26
2017-05-27T04:21:21.586Z,6.88
2017-05-27T04:23:48.358Z,11.14
2017-05-27T04:26:15.076Z,7.48
2017-05-27T04:28:41.798Z,6.72
2017-05-27T04:31:08.538Z,8.92
2017-05-27T04:33:35.558Z,10.52
2017-05-27T04:36:02.281Z,8.64
2017-05-27T04:38:29.048Z,6.78
2017-05-27T04:40:56.072Z,8.44
2017-05-27T04:43:22.800Z,7.74
2017-05-27T04:45:49.545Z,7.70
2017-05-27T04:48:16.271Z,10.48
2017-05-27T04:50:42.984Z,9.74
2017-05-27T04:53:09.724Z,8.08
2017-05-27T04:55:36.454Z,8.06
2017-05-27T04:58:03.174Z,8.00
2017-05-27T05:00:29.912Z,8.08
2017-05-27T05:02:56.627Z,8.78
2017-05-27T05:05:23.359Z,8.74
2017-05-27T05:07:50.144Z,9.84
2017-05-27T05:10:16.867Z,7.72
2017-05-27T05:12:43.591Z,8.92
2017-05-27T05:15:10.312Z,8.12
2017-05-27T05:17:37.024Z,8.36
2017-05-27T05:20:03.732Z,7.24
2017-05-27T05:22:30.503Z,8.16
2017-05-27T05:24:57.225Z,8.16
2017-05-27T05:27:23.944Z,7.48
2017-05-27T05:29:50.672Z,7.72
2017-05-27T05:32:17.395Z,10.90
2017-05-27T05:34:44.114Z,7.24
2017-05-27T05:37:10.838Z,7.16
2017-05-27T05:39:37.555Z,7.56
2017-05-27T05:42:04.274Z,6.68
2017-05-27T05:44:31.009Z,8.70
2017-05-27T05:46:57.738Z,8.26
2017-05-27T05:49:24.461Z,8.06
2017-05-27T05:51:51.227Z,10.02
2017-05-27T05:54:17.949Z,8.26
2017-05-27T05:56:44.672Z,9.46
2017-05-27T05:59:11.402Z,9.20
2017-05-27T06:01:38.115Z,10.58
2017-05-27T06:04:04.839Z,8.20
2017-05-27T06:06:31.579Z,8.42
2017-05-27T06:08:58.325Z,9.44
2017-05-27T06:11:25.042Z,7.50
2017-05-27T06:13:51.772Z,7.58
2017-05-27T06:16:18.494Z,8.28
2017-05-27T06:18:45.217Z,8.72
2017-05-27T06:21:11.933Z,8.02
2017-05-27T06:23:38.661Z,8.80
2017-05-27T06:26:05.388Z,7.68
2017-05-27T06:28:32.155Z,13.38
2017-05-27T06:30:58.885Z,10.48
2017-05-27T06:33:25.596Z,6.82
2017-05-27T06:35:52.365Z,10.50
2017-05-27T06:38:19.083Z,9.12
2017-05-27T06:40:45.814Z,10.92
2017-05-27T06:43:12.557Z,8.30
2017-05-27T06:45:39.291Z,11.02
2017-05-27T06:48:06.002Z,9.58
2017-05-27T06:50:32.777Z,9.08
2017-05-27T06:52:59.605Z,8.16
2017-05-27T06:55:26.316Z,7.00
2017-05-27T06:57:53.034Z,8.82
2017-05-27T07:00:19.763Z,12.32
2017-05-27T07:02:46.491Z,8.16
2017-05-27T07:05:13.255Z,5.38
2017-05-27T07:07:39.990Z,5.20
2017-05-27T07:10:06.813Z,5.48
2017-05-27T07:12:33.573Z,4.44
2017-05-27T07:15:00.308Z,4.58
2017-05-27T07:17:27.027Z,4.36
2017-05-27T07:19:53.786Z,4.08
2017-05-27T07:22:20.507Z,4.20
2017-05-27T07:24:47.220Z,4.32
2017-05-27T07:27:13.940Z,3.90
2017-05-27T07:29:40.652Z,4.42
2017-05-27T07:32:07.375Z,4.32
2017-05-27T07:34:34.094Z,5.34
2017-05-27T07:37:00.821Z,4.50
2017-05-27T07:39:27.537Z,3.80
2017-05-27T07:41:54.250Z,3.96
2017-05-27T07:44:20.974Z,4.58
2017-05-27T07:46:47.692Z,7.22
2017-05-27T07:49:14.419Z,5.74
2017-05-27T07:51:41.129Z,5.32
2017-05-27T07:54:07.865Z,4.58
2017-05-27T07:56:34.581Z,5.38
2017-05-27T07:59:01.292Z,4.56
2017-05-27T08:01:28.024Z,4.64
2017-05-27T08:03:54.760Z,5.12
2017-05-27T08:06:21.498Z,5.22
2017-05-27T08:08:48.251Z,4.32
2017-05-27T08:11:15.044Z,5.08
2017-05-27T08:13:41.764Z,4.04
2017-05-27T08:16:08.518Z,4.68
2017-05-27T08:18:35.242Z,5.08
2017-05-27T08:21:01.960Z,4.44
2017-05-27T08:23:28.676Z,5.62
2017-05-27T08:25:55.412Z,9.14
2017-05-27T08:28:22.120Z,5.80
2017-05-27T08:30:48.842Z,3.90
2017-05-27T08:33:21.290Z,5.16
2017-05-27T08:35:48.057Z,4.36
2017-05-27T08:38:14.780Z,6.54
2017-05-27T08:40:41.599Z,4.78
2017-05-27T08:43:08.318Z,5.00
2017-05-27T08:45:35.047Z,5.14
2017-05-27T08:48:01.766Z,5.24
2017-05-27T08:50:28.530Z,5.02
2017-05-27T08:52:55.269Z,5.30
2017-05-27T08:55:21.987Z,4.72
2017-05-27T08:57:48.719Z,4.96
2017-05-27T09:00:15.433Z,6.68
2017-05-27T09:02:42.162Z,7.52
2017-05-27T09:05:08.887Z,5.36
2017-05-27T09:07:35.605Z,4.78
2017-05-27T09:10:02.330Z,4.86
2017-05-27T09:12:29.046Z,5.88
2017-05-27T09:14:55.786Z,4.86
2017-05-27T09:17:22.496Z,5.34
2017-05-27T09:19:49.219Z,5.76
2017-05-27T09:22:15.934Z,7.98
2017-05-27T09:24:42.657Z,4.02
2017-05-27T09:27:09.382Z,7.14
2017-05-27T09:29:36.104Z,5.64
2017-05-27T09:32:02.823Z,4.84
2017-05-27T09:34:29.538Z,4.60
2017-05-27T09:36:56.270Z,4.92
2017-05-27T09:39:22.988Z,5.36
2017-05-27T09:41:49.711Z,4.94
2017-05-27T09:44:16.440Z,4.78
2017-05-27T09:46:43.178Z,4.48
2017-05-27T09:49:09.907Z,5.30
2017-05-27T09:51:36.638Z,4.90
2017-05-27T09:54:03.359Z,4.98
2017-05-27T09:56:30.087Z,5.14
2017-05-27T09:58:56.807Z,8.22
2017-05-27T10:01:23.527Z,4.88
2017-05-27T10:03:50.258Z,5.20
2017-05-27T10:06:16.981Z,4.60
2017-05-27T10:08:43.736Z,4.28
2017-05-27T10:11:10.460Z,5.98
2017-05-27T10:13:37.178Z,4.92
2017-05-27T10:16:03.949Z,4.78
2017-05-27T10:18:30.668Z,5.46
2017-05-27T10:20:57.386Z,4.92
2017-05-27T10:23:24.123Z,5.02
2017-05-27T10:25:50.845Z,4.48
2017-05-27T10:28:17.565Z,5.12
2017-05-27T10:30:44.334Z,4.86
2017-05-27T10:33:11.052Z,5.10
2017-05-27T10:35:37.768Z,4.38
2017-05-27T10:38:04.491Z,4.82
2017-05-27T10:40:31.205Z,7.02
2017-05-27T10:42:57.916Z,7.16
2017-05-27T10:45:24.642Z,5.56
2017-05-27T10:47:51.353Z,5.26
2017-05-27T10:50:18.060Z,4.74
2017-05-27T10:52:44.831Z,6.10
2017-05-27T10:55:11.547Z,4.70
2017-05-27T10:57:38.272Z,5.42
2017-05-27T11:00:05.017Z,5.02
2017-05-27T11:02:31.768Z,4.66
2017-05-27T11:04:58.502Z,5.16
2017-05-27T11:07:25.229Z,4.72
2017-05-27T11:09:51.944Z,5.04
2017-05-27T11:12:18.661Z,4.70
2017-05-27T11:14:45.378Z,5.48
2017-05-27T11:17:12.108Z,4.78
2017-05-27T11:19:38.875Z,5.96
2017-05-27T11:22:05.605Z,4.98
2017-05-27T11:24:32.330Z,5.02
2017-05-27T11:26:59.051Z,4.70
2017-05-27T11:29:25.815Z,5.00
2017-05-27T11:31:52.529Z,6.02
2017-05-27T11:34:19.256Z,4.22
2017-05-27T11:36:46.028Z,4.24
2017-05-27T11:39:12.761Z,4.72
2017-05-27T11:41:39.476Z,4.04
2017-05-27T11:44:06.198Z,6.64
2017-05-27T11:46:33.230Z,4.86
2017-05-27T11:49:00.061Z,4.06
2017-05-27T11:51:26.824Z,4.28
2017-05-27T11:53:53.546Z,4.54
2017-05-27T11:56:20.266Z,4.42
2017-05-27T11:58:47.158Z,3.64
2017-05-27T12:01:13.870Z,3.78
2017-05-27T12:03:40.706Z,5.48
2017-05-27T12:06:07.472Z,4.02
2017-05-27T12:08:34.193Z,3.66
2017-05-27T12:11:00.929Z,4.26
2017-05-27T12:13:27.689Z,3.06
2017-05-27T12:15:54.406Z,4.42
2017-05-27T12:18:21.124Z,8.80
2017-05-27T12:20:47.840Z,2.74
2017-05-27T12:23:14.564Z,4.10
2017-05-27T12:25:41.282Z,3.48
2017-05-27T12:28:08.016Z,3.28
2017-05-27T12:30:34.762Z,3.30
2017-05-27T12:33:01.477Z,3.48
2017-05-27T12:35:28.200Z,3.46
2017-05-27T12:37:54.959Z,2.84
2017-05-27T12:40:21.701Z,3.64
2017-05-27T12:42:48.465Z,3.32
2017-05-27T12:45:15.206Z,2.92
2017-05-27T12:47:41.928Z,4.68
2017-05-27T12:50:08.641Z,5.20
2017-05-27T12:52:35.373Z,3.10
2017-05-27T12:55:02.147Z,3.52
2017-05-27T12:57:28.875Z,3.56
2017-05-27T12:59:55.596Z,2.76
2017-05-27T13:02:22.307Z,3.14
2017-05-27T13:04:49.038Z,3.24
2017-05-27T13:07:15.764Z,4.46
2017-05-27T13:09:42.485Z,5.36
2017-05-27T13:12:09.215Z,3.36
2017-05-27T13:14:35.932Z,2.24
2017-05-27T13:17:02.658Z,5.30
2017-05-27T13:19:29.382Z,3.92
2017-05-27T13:21:56.101Z,3.12
2017-05-27T13:24:22.821Z,3.42
2017-05-27T13:26:49.542Z,3.04
2017-05-27T13:29:16.260Z,2.48
2017-05-27T13:31:42.992Z,2.88
2017-05-27T13:34:09.740Z,4.86
2017-05-27T13:36:36.461Z,3.24
2017-05-27T13:39:03.266Z,5.26
2017-05-27T13:41:29.995Z,3.60
2017-05-27T13:43:56.726Z,2.80
2017-05-27T13:46:23.450Z,4.34
2017-05-27T13:48:50.175Z,2.66
2017-05-27T13:51:16.892Z,2.66
2017-05-27T13:53:43.608Z,3.12
2017-05-27T13:56:10.347Z,3.42
2017-05-27T13:58:37.066Z,3.80
2017-05-27T14:01:06.660Z,3.88
2017-05-27T14:03:33.383Z,2.76
2017-05-27T14:06:00.122Z,4.52
2017-05-27T14:08:26.889Z,3.90
2017-05-27T14:10:53.630Z,7.62
2017-05-27T14:13:20.346Z,6.16
2017-05-27T14:15:47.086Z,3.32
2017-05-27T14:18:13.821Z,2.78
2017-05-27T14:20:40.538Z,2.84
2017-05-27T14:23:07.259Z,2.78
2017-05-27T14:25:33.994Z,3.72
2017-05-27T14:28:00.741Z,4.64
2017-05-27T14:30:27.462Z,3.08
2017-05-27T14:32:54.197Z,5.72
2017-05-27T14:35:20.913Z,2.44
2017-05-27T14:37:47.638Z,3.14
2017-05-27T14:40:14.386Z,2.74
2017-05-27T14:42:41.107Z,3.82
2017-05-27T14:45:07.831Z,2.60
2017-05-27T14:47:34.567Z,2.74
2017-05-27T14:50:01.280Z,3.18
2017-05-27T14:52:28.053Z,3.42
2017-05-27T14:54:54.822Z,2.92
2017-05-27T14:57:21.541Z,2.86
2017-05-27T14:59:48.275Z,3.92
2017-05-27T15:02:15.041Z,3.02
2017-05-27T15:04:41.768Z,2.54
2017-05-27T15:07:08.494Z,2.80
2017-05-27T15:09:35.216Z,2.56
2017-05-27T15:12:01.935Z,3.48
2017-05-27T15:14:28.653Z,3.36
2017-05-27T15:16:55.373Z,3.22
2017-05-27T15:19:22.104Z,3.50
2017-05-27T15:21:48.818Z,4.70
2017-05-27T15:24:15.591Z,2.64
2017-05-27T15:26:42.309Z,3.02
2017-05-27T15:29:09.024Z,3.44
2017-05-27T15:31:35.771Z,2.90
2017-05-27T15:34:02.490Z,3.10
2017-05-27T15:36:29.213Z,3.64
2017-05-27T15:38:55.945Z,4.36
2017-05-27T15:41:22.666Z,2.90
2017-05-27T15:43:49.390Z,2.72
2017-05-27T15:46:16.107Z,4.44
2017-05-27T15:48:42.824Z,2.64
2017-05-27T15:51:09.542Z,3.48
2017-05-27T15:53:36.314Z,2.20
2017-05-27T15:56:03.046Z,2.18
2017-05-27T15:58:29.760Z,2.62
2017-05-27T16:00:56.488Z,3.96
2017-05-27T16:03:23.198Z,2.72
2017-05-27T16:05:49.918Z,3.08
2017-05-27T16:08:16.661Z,3.14
2017-05-27T16:10:43.388Z,5.54
2017-05-27T16:13:10.109Z,2.60
2017-05-27T16:15:36.848Z,3.20
2017-05-27T16:18:03.569Z,2.54
2017-05-27T16:20:30.284Z,2.72
2017-05-27T16:22:57.009Z,2.72
2017-05-27T16:25:23.735Z,2.82
2017-05-27T16:27:50.469Z,3.62
2017-05-27T16:30:17.196Z,2.84
2017-05-27T16:32:43.908Z,2.72
2017-05-27T16:35:10.649Z,4.94
2017-05-27T16:37:37.380Z,4.18
2017-05-27T16:40:04.109Z,3.44
2017-05-27T16:42:30.825Z,3.00
2017-05-27T16:44:57.545Z,6.56
2017-05-27T16:47:24.267Z,3.00
2017-05-27T16:49:51.011Z,2.36
2017-05-27T16:52:17.741Z,2.60
2017-05-27T16:54:44.453Z,3.16
2017-05-27T16:57:11.267Z,4.32
2017-05-27T16:59:37.992Z,2.96
2017-05-27T17:02:04.714Z,2.82
2017-05-27T17:04:31.460Z,2.72
2017-05-27T17:06:58.179Z,3.44
2017-05-27T17:09:24.901Z,2.56
2017-05-27T17:11:51.624Z,2.62
2017-05-27T17:14:18.333Z,2.90
2017-05-27T17:16:45.074Z,2.98
2017-05-27T17:19:11.797Z,3.14
2017-05-27T17:21:38.563Z,4.62
2017-05-27T17:24:05.337Z,2.82
2017-05-27T17:26:32.061Z,2.64
2017-05-27T17:28:58.804Z,2.92
2017-05-27T17:31:25.515Z,3.36
2017-05-27T17:33:52.240Z,3.26
2017-05-27T17:36:19.001Z,5.44
2017-05-27T17:38:45.736Z,3.40
2017-05-27T17:41:12.453Z,8.54
2017-05-27T17:43:39.229Z,3.02
2017-05-27T17:46:05.966Z,2.96
2017-05-27T17:48:32.718Z,3.32
2017-05-27T17:50:59.433Z,5.62
2017-05-27T17:53:26.161Z,3.62
2017-05-27T17:55:52.890Z,3.78
2017-05-27T17:58:19.614Z,2.86
2017-05-27T18:00:46.339Z,6.66
2017-05-27T18:03:13.070Z,3.04
2017-05-27T18:05:39.834Z,3.86
2017-05-27T18:08:06.563Z,4.22
2017-05-27T18:10:33.289Z,2.86
2017-05-27T18:13:00.019Z,2.76
2017-05-27T18:15:26.759Z,3.42
2017-05-27T18:17:53.542Z,3.92
2017-05-27T18:20:20.285Z,3.38
2017-05-27T18:22:47.013Z,3.42
2017-05-27T18:25:13.736Z,3.40
2017-05-27T18:27:40.481Z,5.32
2017-05-27T18:30:07.201Z,3.44
2017-05-27T18:32:33.931Z,5.54
2017-05-27T18:35:00.714Z,3.24
2017-05-27T18:37:27.437Z,4.10
2017-05-27T18:39:54.157Z,5.82
2017-05-27T18:42:20.875Z,3.22
2017-05-27T18:44:47.654Z,3.68
2017-05-27T18:47:14.719Z,3.82
2017-05-27T18:49:41.434Z,6.96
2017-05-27T18:52:08.160Z,4.28
2017-05-27T18:54:34.901Z,3.98
2017-05-27T18:57:01.762Z,6.20
2017-05-27T18:59:28.516Z,5.22
2017-05-27T19:01:55.260Z,3.64
2017-05-27T19:04:22.078Z,3.96
2017-05-27T19:06:48.851Z,5.48
2017-05-27T19:09:15.613Z,4.54
2017-05-27T19:11:42.408Z,4.12
2017-05-27T19:14:09.155Z,3.72
2017-05-27T19:16:38.006Z,7.40
2017-05-27T19:19:04.829Z,4.20
2017-05-27T19:21:31.604Z,4.04
2017-05-27T19:23:58.386Z,11.18
2017-05-27T19:26:25.162Z,4.38
2017-05-27T19:28:51.924Z,3.72
2017-05-27T19:31:18.696Z,3.56
2017-05-27T19:33:45.572Z,3.74
2017-05-27T19:36:12.351Z,3.92
2017-05-27T19:38:39.171Z,7.52
2017-05-27T19:41:05.969Z,3.68
2017-05-27T19:43:32.694Z,5.70
2017-05-27T19:45:59.464Z,4.14
2017-05-27T19:48:26.228Z,6.94
2017-05-27T19:50:53.014Z,5.56
2017-05-27T19:53:19.736Z,5.44
2017-05-27T19:55:46.516Z,4.16
2017-05-27T19:58:13.346Z,7.84
2017-05-27T20:00:40.118Z,3.70
2017-05-27T20:03:06.872Z,4.30
2017-05-27T20:05:33.609Z,3.84
2017-05-27T20:08:00.372Z,4.12
2017-05-27T20:10:27.189Z,3.62
2017-05-27T20:12:54.864Z,3.60
2017-05-27T20:15:21.614Z,3.90
2017-05-27T20:17:48.368Z,7.88
2017-05-27T20:20:15.128Z,6.06
2017-05-27T20:22:43.733Z,4.44
2017-05-27T20:25:10.504Z,3.68
2017-05-27T20:27:37.265Z,3.64
2017-05-27T20:30:04.015Z,3.82
2017-05-27T20:32:31.849Z,3.74
2017-05-27T20:34:58.639Z,4.28
2017-05-27T20:37:26.397Z,3.80
2017-05-27T20:39:53.224Z,4.38
2017-05-27T20:42:20.092Z,3.70
2017-05-27T20:44:46.854Z,5.80
2017-05-27T20:47:13.635Z,4.16
2017-05-27T20:49:40.425Z,4.56
2017-05-27T20:52:07.209Z,4.58
2017-05-27T20:54:33.957Z,5.68
2017-05-27T20:57:00.752Z,3.28
2017-05-27T20:59:27.516Z,5.30
2017-05-27T21:01:54.274Z,4.10
2017-05-27T21:04:21.032Z,4.56
2017-05-27T21:06:47.817Z,5.02
2017-05-27T21:09:14.612Z,4.40
2017-05-27T21:11:41.369Z,4.68
2017-05-27T21:14:08.124Z,3.98
2017-05-27T21:16:34.974Z,9.54
2017-05-27T21:19:01.834Z,6.00
2017-05-27T21:21:28.642Z,4.68
2017-05-27T21:23:55.385Z,6.86
2017-05-27T21:26:22.190Z,5.10
2017-05-27T21:28:48.938Z,5.00
2017-05-27T21:31:15.674Z,4.94
2017-05-27T21:33:42.493Z,5.20
2017-05-27T21:36:10.123Z,5.40
2017-05-27T21:38:37.270Z,5.36
2017-05-27T21:41:04.035Z,4.44
2017-05-27T21:43:30.770Z,4.56
2017-05-27T21:45:57.521Z,4.56
2017-05-27T21:48:24.401Z,4.92
2017-05-27T21:50:51.206Z,3.96
2017-05-27T21:53:18.120Z,5.88
2017-05-27T21:55:44.851Z,5.86
2017-05-27T21:58:11.653Z,5.10
2017-05-27T22:00:38.389Z,9.40
2017-05-27T22:03:05.105Z,4.84
2017-05-27T22:05:31.821Z,4.24
2017-05-27T22:07:58.559Z,4.98
2017-05-27T22:10:25.281Z,4.64
2017-05-27T22:12:51.994Z,5.16
2017-05-27T22:15:18.717Z,4.74
2017-05-27T22:17:45.434Z,4.52
2017-05-27T22:20:12.154Z,4.88
2017-05-27T22:22:38.912Z,8.60
2017-05-27T22:25:05.630Z,4.90
2017-05-27T22:27:32.350Z,5.34
2017-05-27T22:29:59.076Z,4.84
2017-05-27T22:32:25.796Z,5.18
2017-05-27T22:34:52.513Z,5.62
2017-05-27T22:37:19.278Z,7.24
2017-05-27T22:39:45.997Z,5.72
2017-05-27T22:42:12.721Z,5.04
2017-05-27T22:44:39.436Z,5.14
2017-05-27T22:47:06.165Z,5.00
2017-05-27T22:49:33.526Z,5.58
2017-05-27T22:52:00.252Z,5.90
2017-05-27T22:54:26.976Z,4.78
2017-05-27T22:56:53.705Z,5.14
2017-05-27T22:59:20.454Z,4.88
2017-05-27T23:01:47.193Z,5.42
2017-05-27T23:04:13.905Z,4.64
2017-05-27T23:06:40.619Z,4.52
2017-05-27T23:09:07.348Z,5.30
2017-05-27T23:11:34.073Z,6.64
2017-05-27T23:14:00.866Z,5.20
2017-05-27T23:16:27.615Z,5.30
2017-05-27T23:18:54.379Z,4.76
2017-05-27T23:21:21.112Z,5.04
2017-05-27T23:23:47.847Z,5.18
2017-05-27T23:26:14.588Z,4.70
2017-05-27T23:28:41.310Z,5.28
2017-05-27T23:31:08.033Z,7.04
2017-05-27T23:33:34.752Z,4.98
2017-05-27T23:36:01.481Z,7.02
2017-05-27T23:38:28.194Z,6.12
2017-05-27T23:40:54.915Z,5.82
2017-05-27T23:43:21.645Z,5.52
2017-05-27T23:45:48.366Z,5.48
2017-05-27T23:48:15.090Z,4.82
2017-05-27T23:50:41.801Z,5.72
2017-05-27T23:53:08.522Z,5.50
2017-05-27T23:55:35.249Z,5.24
2017-05-27T23:58:01.974Z,6.18
